createdAt,value
2017-06-23T00:00:51.862Z,976.4
2017-06-23T00:01:55.976Z,976.5
2017-06-23T00:02:58.627Z,976.4
2017-06-23T00:04:01.351Z,976.4
2017-06-23T00:05:04.027Z,976.5
2017-06-23T00:06:06.704Z,976.5
2017-06-23T00:07:09.368Z,976.5
2017-06-23T00:08:12.005Z,976.4
2017-06-23T00:09:14.604Z,976.5
2017-06-23T00:10:17.220Z,976.5
2017-06-23T00:11:19.873Z,976.5
2017-06-23T00:12:22.492Z,976.6
2017-06-23T00:13:25.127Z,976.5
2017-06-23T00:14:27.788Z,976.6
2017-06-23T00:15:30.559Z,976.5
2017-06-23T00:16:33.199Z,976.6
2017-06-23T00:17:35.836Z,976.5
2017-06-23T00:18:38.516Z,976.6
2017-06-23T00:19:41.241Z,976.5
2017-06-23T00:20:43.856Z,976.6
2017-06-23T00:21:46.510Z,976.6
2017-06-23T00:22:49.170Z,976.3
2017-06-23T00:23:51.876Z,976.6
2017-06-23T00:24:54.548Z,976.5
2017-06-23T00:25:57.144Z,976.6
2017-06-23T00:26:59.872Z,976.6
2017-06-23T00:28:02.568Z,976.6
2017-06-23T00:29:05.192Z,976.7
2017-06-23T00:30:07.823Z,976.7
2017-06-23T00:31:10.548Z,976.6
2017-06-23T00:32:13.232Z,976.6
2017-06-23T00:33:15.826Z,976.6
2017-06-23T00:34:18.448Z,976.7
2017-06-23T00:35:21.006Z,976.7
2017-06-23T00:36:23.653Z,976.7
2017-06-23T00:37:26.317Z,976.6
2017-06-23T00:38:28.949Z,976.6
2017-06-23T00:39:31.496Z,976.5
2017-06-23T00:40:34.041Z,976.5
2017-06-23T00:41:36.658Z,976.5
2017-06-23T00:42:39.314Z,976.5
2017-06-23T00:43:41.871Z,976.5
2017-06-23T00:44:44.412Z,976.6
2017-06-23T00:45:46.969Z,976.5
2017-06-23T00:46:49.570Z,976.5
2017-06-23T00:47:52.262Z,976.5
2017-06-23T00:48:54.811Z,976.6
2017-06-23T00:49:57.349Z,976.6
2017-06-23T00:50:59.931Z,976.6
2017-06-23T00:52:02.499Z,976.6
2017-06-23T00:53:05.062Z,976.6
2017-06-23T00:54:07.657Z,976.6
2017-06-23T00:55:10.213Z,976.6
2017-06-23T00:56:14.224Z,976.6
2017-06-23T00:57:16.750Z,976.6
2017-06-23T00:58:19.503Z,976.6
2017-06-23T00:59:22.087Z,976.4
2017-06-23T01:00:24.718Z,976.7
2017-06-23T01:01:27.338Z,976.6
2017-06-23T01:02:30.133Z,976.7
2017-06-23T01:03:32.760Z,976.7
2017-06-23T01:04:35.333Z,976.7
2017-06-23T01:05:37.888Z,976.6
2017-06-23T01:06:40.549Z,976.6
2017-06-23T01:07:43.134Z,976.6
2017-06-23T01:08:45.652Z,976.6
2017-06-23T01:09:48.232Z,976.6
2017-06-23T01:10:50.819Z,976.6
2017-06-23T01:11:53.366Z,976.6
2017-06-23T01:12:55.994Z,976.6
2017-06-23T01:13:58.523Z,976.5
2017-06-23T01:15:01.216Z,976.6
2017-06-23T01:16:04.161Z,976.6
2017-06-23T01:17:06.934Z,976.6
2017-06-23T01:18:09.590Z,976.6
2017-06-23T01:19:12.269Z,976.5
2017-06-23T01:20:14.831Z,976.6
2017-06-23T01:21:17.388Z,976.6
2017-06-23T01:22:20.045Z,976.6
2017-06-23T01:23:22.716Z,976.6
2017-06-23T01:24:25.347Z,976.5
2017-06-23T01:25:27.920Z,976.5
2017-06-23T01:26:30.832Z,976.5
2017-06-23T01:27:33.454Z,976.6
2017-06-23T01:28:36.170Z,976.3
2017-06-23T01:29:38.820Z,976.5
2017-06-23T01:30:41.436Z,976.5
2017-06-23T01:31:43.991Z,976.3
2017-06-23T01:32:46.548Z,976.4
2017-06-23T01:33:49.185Z,976.2
2017-06-23T01:34:51.803Z,976.4
2017-06-23T01:35:54.401Z,976.4
2017-06-23T01:36:56.944Z,976.4
2017-06-23T01:37:59.610Z,976.4
2017-06-23T01:39:02.286Z,976.4
2017-06-23T01:40:04.880Z,976.4
2017-06-23T01:41:07.845Z,976.3
2017-06-23T01:42:10.365Z,976.4
2017-06-23T01:43:12.980Z,976.4
2017-06-23T01:44:16.245Z,976.4
2017-06-23T01:45:18.849Z,976.4
2017-06-23T01:46:21.494Z,976.4
2017-06-23T01:47:24.047Z,976.4
2017-06-23T01:48:26.615Z,976.4
2017-06-23T01:49:29.183Z,976.4
2017-06-23T01:50:31.783Z,976.4
2017-06-23T01:51:34.360Z,976.4
2017-06-23T01:52:36.991Z,976.4
2017-06-23T01:53:39.608Z,976.4
2017-06-23T01:54:42.416Z,976.4
2017-06-23T01:55:45.047Z,976.4
2017-06-23T01:56:47.584Z,976.4
2017-06-23T01:57:50.158Z,976.5
2017-06-23T01:58:52.732Z,976.2
2017-06-23T01:59:55.393Z,976.5
2017-06-23T02:00:57.934Z,976.5
2017-06-23T02:02:00.635Z,976.5
2017-06-23T02:03:03.285Z,976.5
2017-06-23T02:04:05.814Z,976.6
2017-06-23T02:05:08.391Z,976.5
2017-06-23T02:06:10.986Z,976.5
2017-06-23T02:07:13.531Z,976.6
2017-06-23T02:08:16.111Z,976.5
2017-06-23T02:09:18.680Z,976.5
2017-06-23T02:10:21.379Z,976.5
2017-06-23T02:11:24.013Z,976.6
2017-06-23T02:12:26.832Z,976.6
2017-06-23T02:13:29.481Z,976.6
2017-06-23T02:14:32.057Z,976.6
2017-06-23T02:15:34.661Z,976.1
2017-06-23T02:16:37.188Z,976.7
2017-06-23T02:17:39.867Z,976.7
2017-06-23T02:18:42.428Z,976.6
2017-06-23T02:19:44.983Z,976.6
2017-06-23T02:20:47.550Z,976.6
2017-06-23T02:21:50.875Z,976.6
2017-06-23T02:22:53.468Z,976.7
2017-06-23T02:23:56.083Z,976.6
2017-06-23T02:24:58.646Z,976.7
2017-06-23T02:26:01.692Z,976.8
2017-06-23T02:27:04.920Z,976.8
2017-06-23T02:28:07.492Z,976.7
2017-06-23T02:29:10.193Z,976.8
2017-06-23T02:30:12.831Z,976.8
2017-06-23T02:31:15.392Z,976.8
2017-06-23T02:32:17.954Z,976.8
2017-06-23T02:33:20.528Z,976.8
2017-06-23T02:34:23.154Z,976.7
2017-06-23T02:35:26.544Z,976.8
2017-06-23T02:36:29.115Z,976.8
2017-06-23T02:37:31.772Z,976.9
2017-06-23T02:38:34.658Z,976.9
2017-06-23T02:39:37.224Z,976.9
2017-06-23T02:40:39.861Z,976.8
2017-06-23T02:41:42.543Z,976.9
2017-06-23T02:42:45.148Z,976.9
2017-06-23T02:43:47.747Z,976.9
2017-06-23T02:44:50.358Z,976.9
2017-06-23T02:45:53.502Z,976.9
2017-06-23T02:46:56.154Z,976.8
2017-06-23T02:47:58.753Z,976.9
2017-06-23T02:49:01.481Z,976.9
2017-06-23T02:50:04.794Z,976.9
2017-06-23T02:51:07.456Z,976.9
2017-06-23T02:52:10.082Z,977
2017-06-23T02:53:12.766Z,977
2017-06-23T02:54:15.418Z,977
2017-06-23T02:55:18.043Z,977
2017-06-23T02:56:20.735Z,977
2017-06-23T02:57:23.354Z,977
2017-06-23T02:58:26.053Z,977
2017-06-23T02:59:29.431Z,977
2017-06-23T03:00:32.563Z,977
2017-06-23T03:01:35.895Z,977
2017-06-23T03:02:38.477Z,977
2017-06-23T03:03:41.109Z,977
2017-06-23T03:04:43.735Z,977.1
2017-06-23T03:05:46.336Z,977.1
2017-06-23T03:06:49.006Z,977.1
2017-06-23T03:07:51.634Z,977.1
2017-06-23T03:08:54.217Z,977.1
2017-06-23T03:09:56.807Z,977.2
2017-06-23T03:10:59.373Z,977.2
2017-06-23T03:12:02.022Z,977.2
2017-06-23T03:13:04.608Z,977.2
2017-06-23T03:14:07.144Z,977.2
2017-06-23T03:15:09.734Z,977.2
2017-06-23T03:16:12.271Z,977.3
2017-06-23T03:17:14.857Z,977.3
2017-06-23T03:18:17.451Z,977.2
2017-06-23T03:19:20.088Z,977.3
2017-06-23T03:20:22.744Z,977.3
2017-06-23T03:21:25.340Z,977.3
2017-06-23T03:22:27.932Z,977.3
2017-06-23T03:23:30.580Z,977.3
2017-06-23T03:24:33.267Z,977.3
2017-06-23T03:25:35.839Z,977.4
2017-06-23T03:26:38.377Z,977.4
2017-06-23T03:27:41.837Z,976.8
2017-06-23T03:28:44.384Z,977.3
2017-06-23T03:29:46.986Z,977.4
2017-06-23T03:30:49.596Z,977.4
2017-06-23T03:31:52.277Z,977.5
2017-06-23T03:32:54.940Z,977.4
2017-06-23T03:33:57.496Z,977.5
2017-06-23T03:35:00.148Z,977.4
2017-06-23T03:36:02.763Z,977.4
2017-06-23T03:37:05.352Z,977.5
2017-06-23T03:38:07.986Z,977.5
2017-06-23T03:39:10.538Z,977.5
2017-06-23T03:40:13.190Z,977.5
2017-06-23T03:41:15.824Z,977.5
2017-06-23T03:42:18.438Z,977.5
2017-06-23T03:43:21.012Z,977.5
2017-06-23T03:44:23.637Z,977.4
2017-06-23T03:45:26.203Z,977.5
2017-06-23T03:46:28.890Z,977.5
2017-06-23T03:47:31.533Z,977.4
2017-06-23T03:48:34.069Z,977.5
2017-06-23T03:49:36.598Z,977.5
2017-06-23T03:50:39.181Z,977.5
2017-06-23T03:51:41.741Z,977.4
2017-06-23T03:52:44.337Z,977.5
2017-06-23T03:53:46.932Z,977.5
2017-06-23T03:54:49.522Z,977.4
2017-06-23T03:55:52.132Z,977.5
2017-06-23T03:56:54.699Z,977.5
2017-06-23T03:57:57.270Z,977.5
2017-06-23T03:58:59.897Z,977.6
2017-06-23T04:00:02.533Z,977.6
2017-06-23T04:01:05.196Z,977.6
2017-06-23T04:02:07.805Z,977.6
2017-06-23T04:03:10.364Z,977.6
2017-06-23T04:04:12.913Z,977.5
2017-06-23T04:05:15.494Z,977.6
2017-06-23T04:06:18.093Z,977.6
2017-06-23T04:07:20.708Z,977.6
2017-06-23T04:08:23.325Z,977.5
2017-06-23T04:09:25.956Z,977.6
2017-06-23T04:10:28.538Z,977.6
2017-06-23T04:11:31.204Z,977.6
2017-06-23T04:12:33.786Z,977.6
2017-06-23T04:13:36.374Z,977.1
2017-06-23T04:14:38.931Z,977.6
2017-06-23T04:15:41.632Z,977.5
2017-06-23T04:16:44.421Z,977.6
2017-06-23T04:17:47.059Z,977.6
2017-06-23T04:18:49.624Z,977.6
2017-06-23T04:19:52.225Z,977.6
2017-06-23T04:20:54.792Z,977.6
2017-06-23T04:21:57.386Z,977.6
2017-06-23T04:23:00.028Z,977.6
2017-06-23T04:24:02.664Z,977.6
2017-06-23T04:25:05.156Z,977.6
2017-06-23T04:26:07.740Z,977.6
2017-06-23T04:27:10.346Z,977.6
2017-06-23T04:28:12.966Z,977.6
2017-06-23T04:29:15.560Z,977.6
2017-06-23T04:30:18.145Z,977.6
2017-06-23T04:31:20.755Z,977.6
2017-06-23T04:32:23.369Z,977.7
2017-06-23T04:33:26.042Z,977.6
2017-06-23T04:34:28.660Z,977.6
2017-06-23T04:35:31.347Z,977.7
2017-06-23T04:36:33.956Z,977.6
2017-06-23T04:37:36.648Z,977.7
2017-06-23T04:38:39.363Z,977.7
2017-06-23T04:39:41.952Z,977.6
2017-06-23T04:40:44.568Z,977.7
2017-06-23T04:41:47.102Z,977.7
2017-06-23T04:42:49.797Z,977.7
2017-06-23T04:43:52.365Z,977.7
2017-06-23T04:44:54.992Z,977.7
2017-06-23T04:45:57.690Z,977.6
2017-06-23T04:47:00.321Z,977.7
2017-06-23T04:48:02.913Z,977.7
2017-06-23T04:49:05.537Z,977.7
2017-06-23T04:50:08.240Z,977.6
2017-06-23T04:51:10.968Z,977.7
2017-06-23T04:52:13.550Z,977.6
2017-06-23T04:53:16.544Z,977.7
2017-06-23T04:54:20.568Z,977.7
2017-06-23T04:55:23.225Z,977.7
2017-06-23T04:56:25.795Z,977.7
2017-06-23T04:57:28.354Z,977.7
2017-06-23T04:58:31.899Z,977.8
2017-06-23T04:59:34.510Z,977.7
2017-06-23T05:00:37.103Z,977.7
2017-06-23T05:01:39.709Z,977.7
2017-06-23T05:02:42.456Z,977.7
2017-06-23T05:03:45.057Z,977.8
2017-06-23T05:04:47.692Z,977.8
2017-06-23T05:05:50.371Z,977.8
2017-06-23T05:06:52.961Z,977.8
2017-06-23T05:07:55.605Z,977.2
2017-06-23T05:08:58.200Z,977.8
2017-06-23T05:10:00.859Z,977.8
2017-06-23T05:11:03.443Z,977.8
2017-06-23T05:12:06.013Z,977.9
2017-06-23T05:13:08.668Z,977.9
2017-06-23T05:14:11.405Z,977.9
2017-06-23T05:15:13.960Z,977.9
2017-06-23T05:16:16.571Z,977.9
2017-06-23T05:17:19.204Z,977.9
2017-06-23T05:18:21.970Z,977.5
2017-06-23T05:19:24.593Z,977.9
2017-06-23T05:20:27.173Z,978
2017-06-23T05:21:30.626Z,977.9
2017-06-23T05:22:33.164Z,978
2017-06-23T05:23:35.765Z,977.9
2017-06-23T05:24:38.400Z,978
2017-06-23T05:25:41.209Z,977.7
2017-06-23T05:26:43.898Z,977.9
2017-06-23T05:27:46.861Z,978
2017-06-23T05:28:49.517Z,977.9
2017-06-23T05:29:52.164Z,978
2017-06-23T05:30:54.921Z,978
2017-06-23T05:31:57.532Z,978.1
2017-06-23T05:33:00.312Z,978
2017-06-23T05:34:03.040Z,978
2017-06-23T05:35:05.679Z,978
2017-06-23T05:36:08.348Z,978.1
2017-06-23T05:37:10.946Z,978
2017-06-23T05:38:15.183Z,977.8
2017-06-23T05:39:17.846Z,978
2017-06-23T05:40:20.762Z,978.1
2017-06-23T05:41:23.434Z,978.1
2017-06-23T05:42:26.137Z,978.1
2017-06-23T05:43:28.803Z,978.1
2017-06-23T05:44:31.537Z,978.2
2017-06-23T05:45:34.151Z,978.2
2017-06-23T05:46:36.761Z,978.1
2017-06-23T05:47:39.426Z,978.3
2017-06-23T05:48:42.056Z,978.3
2017-06-23T05:49:44.653Z,978.2
2017-06-23T05:50:47.321Z,978.3
2017-06-23T05:51:50.043Z,978.3
2017-06-23T05:52:52.759Z,978
2017-06-23T05:53:55.391Z,978.3
2017-06-23T05:54:58.125Z,978.3
2017-06-23T05:56:00.940Z,978.3
2017-06-23T05:57:03.469Z,978.3
2017-06-23T05:58:06.170Z,978.3
2017-06-23T05:59:08.755Z,978.3
2017-06-23T06:00:11.531Z,978.3
2017-06-23T06:01:14.170Z,978.3
2017-06-23T06:02:16.714Z,978.3
2017-06-23T06:03:19.321Z,978.3
2017-06-23T06:04:22.271Z,978.3
2017-06-23T06:05:24.929Z,978.3
2017-06-23T06:06:27.763Z,978.4
2017-06-23T06:07:30.572Z,978.4
2017-06-23T06:08:33.732Z,978.4
2017-06-23T06:09:36.412Z,978.2
2017-06-23T06:10:38.949Z,978.4
2017-06-23T06:11:41.740Z,978.5
2017-06-23T06:12:44.422Z,978.5
2017-06-23T06:13:47.060Z,978.5
2017-06-23T06:14:49.978Z,978.5
2017-06-23T06:15:52.685Z,978.5
2017-06-23T06:16:55.414Z,978.6
2017-06-23T06:17:58.145Z,978.6
2017-06-23T06:19:01.161Z,978.6
2017-06-23T06:20:04.407Z,978.6
2017-06-23T06:21:07.943Z,978.3
2017-06-23T06:22:10.649Z,978.6
2017-06-23T06:23:18.385Z,978.7
2017-06-23T06:24:25.590Z,978.4
2017-06-23T06:25:28.267Z,978.7
2017-06-23T06:26:30.965Z,978.7
2017-06-23T06:27:33.593Z,978.7
2017-06-23T06:28:38.286Z,978.3
2017-06-23T06:29:41.121Z,978.7
2017-06-23T06:30:43.791Z,978.7
2017-06-23T06:31:46.489Z,978.8
2017-06-23T06:32:49.217Z,978.8
2017-06-23T06:33:52.213Z,978.9
2017-06-23T06:34:55.047Z,978.8
2017-06-23T06:35:57.857Z,978.8
2017-06-23T06:37:00.629Z,978.8
2017-06-23T06:38:03.307Z,978.8
2017-06-23T06:39:05.890Z,978.8
2017-06-23T06:40:08.478Z,978.8
2017-06-23T06:41:11.204Z,978.8
2017-06-23T06:42:13.928Z,978.9
2017-06-23T06:43:16.559Z,978.9
2017-06-23T06:44:19.273Z,978.6
2017-06-23T06:45:22.244Z,978.9
2017-06-23T06:46:24.891Z,979
2017-06-23T06:47:27.477Z,979
2017-06-23T06:48:30.074Z,979
2017-06-23T06:49:32.712Z,979
2017-06-23T06:50:35.349Z,979
2017-06-23T06:51:38.016Z,979.1
2017-06-23T06:52:40.773Z,979.1
2017-06-23T06:53:43.427Z,978.7
2017-06-23T06:54:46.093Z,979.1
2017-06-23T06:55:48.663Z,979.1
2017-06-23T06:56:51.370Z,979
2017-06-23T06:57:54.048Z,979.1
2017-06-23T06:58:56.683Z,979.1
2017-06-23T06:59:59.324Z,979.2
2017-06-23T07:01:02.152Z,978.8
2017-06-23T07:02:05.759Z,979.1
2017-06-23T07:03:08.530Z,979.1
2017-06-23T07:04:11.153Z,979.2
2017-06-23T07:05:13.884Z,979.2
2017-06-23T07:06:16.779Z,979.2
2017-06-23T07:07:19.448Z,979.2
2017-06-23T07:08:22.251Z,979.3
2017-06-23T07:09:25.045Z,979.3
2017-06-23T07:10:29.843Z,979.2
2017-06-23T07:11:32.517Z,979.3
2017-06-23T07:12:35.169Z,979.3
2017-06-23T07:13:37.999Z,979.3
2017-06-23T07:14:41.530Z,979.3
2017-06-23T07:15:44.418Z,979.4
2017-06-23T07:16:47.090Z,979.3
2017-06-23T07:17:51.523Z,979.4
2017-06-23T07:18:54.158Z,979.4
2017-06-23T07:19:56.751Z,979.4
2017-06-23T07:20:59.357Z,979.4
2017-06-23T07:22:02.379Z,979.4
2017-06-23T07:23:05.073Z,979.5
2017-06-23T07:24:07.799Z,979.4
2017-06-23T07:25:10.647Z,979.5
2017-06-23T07:26:13.361Z,979.5
2017-06-23T07:27:16.061Z,979.5
2017-06-23T07:28:18.856Z,979.5
2017-06-23T07:29:21.560Z,979.5
2017-06-23T07:30:24.250Z,979.6
2017-06-23T07:31:26.841Z,979.6
2017-06-23T07:32:29.493Z,979.6
2017-06-23T07:33:32.441Z,979.5
2017-06-23T07:34:35.067Z,979.5
2017-06-23T07:35:37.768Z,979.4
2017-06-23T07:36:40.448Z,979.2
2017-06-23T07:37:43.135Z,979.5
2017-06-23T07:38:45.890Z,979.4
2017-06-23T07:39:48.609Z,979.4
2017-06-23T07:40:51.312Z,979.4
2017-06-23T07:41:53.989Z,979.4
2017-06-23T07:42:56.638Z,979.5
2017-06-23T07:44:01.497Z,979.5
2017-06-23T07:45:04.169Z,979.5
2017-06-23T07:46:07.398Z,979.5
2017-06-23T07:47:10.149Z,979.5
2017-06-23T07:48:12.748Z,979.5
2017-06-23T07:49:15.434Z,979.4
2017-06-23T07:50:18.032Z,979.1
2017-06-23T07:51:20.859Z,979.4
2017-06-23T07:52:23.493Z,979.2
2017-06-23T07:53:26.165Z,979.4
2017-06-23T07:54:29.134Z,979.4
2017-06-23T07:55:31.832Z,979.3
2017-06-23T07:56:35.171Z,979.3
2017-06-23T07:57:37.851Z,979.3
2017-06-23T07:58:40.617Z,979.4
2017-06-23T07:59:43.221Z,979.4
2017-06-23T08:00:45.926Z,979.5
2017-06-23T08:01:48.835Z,979.6
2017-06-23T08:02:51.666Z,979.6
2017-06-23T08:03:54.296Z,979.6
2017-06-23T08:04:56.974Z,979.4
2017-06-23T08:05:59.771Z,979.6
2017-06-23T08:07:02.571Z,979.6
2017-06-23T08:08:05.209Z,979.7
2017-06-23T08:09:07.938Z,979.7
2017-06-23T08:10:10.731Z,979.7
2017-06-23T08:11:13.676Z,979.7
2017-06-23T08:12:16.320Z,979.7
2017-06-23T08:13:19.031Z,979.4
2017-06-23T08:14:21.763Z,979.5
2017-06-23T08:15:24.443Z,979.6
2017-06-23T08:16:27.095Z,979.6
2017-06-23T08:17:29.733Z,979.6
2017-06-23T08:18:32.483Z,979.4
2017-06-23T08:19:36.810Z,979.5
2017-06-23T08:20:39.669Z,979.6
2017-06-23T08:21:42.421Z,979.5
2017-06-23T08:22:45.078Z,979.6
2017-06-23T08:23:48.266Z,979.4
2017-06-23T08:24:51.053Z,979.7
2017-06-23T08:25:54.460Z,979.7
2017-06-23T08:27:01.527Z,979.7
2017-06-23T08:28:04.489Z,979.7
2017-06-23T08:29:07.140Z,979.7
2017-06-23T08:30:09.858Z,979.8
2017-06-23T08:31:12.736Z,979.8
2017-06-23T08:32:15.609Z,979.6
2017-06-23T08:33:20.141Z,979.7
2017-06-23T08:34:24.801Z,979.8
2017-06-23T08:35:27.487Z,979.8
2017-06-23T08:36:32.028Z,979.8
2017-06-23T08:37:34.640Z,979.4
2017-06-23T08:38:38.404Z,979.6
2017-06-23T08:39:41.172Z,979.7
2017-06-23T08:40:44.006Z,979.6
2017-06-23T08:41:46.758Z,979.7
2017-06-23T08:42:49.430Z,979.7
2017-06-23T08:43:52.310Z,979.7
2017-06-23T08:44:55.079Z,979.7
2017-06-23T08:45:57.735Z,979.4
2017-06-23T08:47:00.605Z,979.5
2017-06-23T08:48:03.381Z,979.7
2017-06-23T08:49:06.062Z,979.7
2017-06-23T08:50:08.935Z,979.8
2017-06-23T08:51:11.632Z,979.9
2017-06-23T08:52:14.414Z,979.9
2017-06-23T08:53:17.113Z,979.6
2017-06-23T08:54:19.868Z,979.6
2017-06-23T08:55:22.681Z,979.6
2017-06-23T08:56:25.355Z,979.9
2017-06-23T08:57:28.183Z,980
2017-06-23T08:58:31.376Z,979.6
2017-06-23T08:59:34.255Z,979.9
2017-06-23T09:00:37.203Z,980
2017-06-23T09:01:39.944Z,979.9
2017-06-23T09:02:42.651Z,980
2017-06-23T09:03:45.271Z,979.9
2017-06-23T09:04:48.049Z,979.9
2017-06-23T09:05:51.365Z,979.9
2017-06-23T09:06:54.026Z,979.8
2017-06-23T09:07:56.794Z,979.8
2017-06-23T09:08:59.610Z,979.7
2017-06-23T09:10:02.566Z,979.6
2017-06-23T09:11:05.204Z,979.7
2017-06-23T09:12:07.955Z,979.7
2017-06-23T09:13:10.723Z,979.7
2017-06-23T09:14:13.419Z,979.7
2017-06-23T09:15:16.108Z,979.8
2017-06-23T09:16:18.728Z,979.8
2017-06-23T09:17:21.418Z,979.8
2017-06-23T09:18:24.064Z,979.9
2017-06-23T09:19:26.771Z,979.9
2017-06-23T09:20:29.462Z,980
2017-06-23T09:21:32.273Z,979.5
2017-06-23T09:22:34.974Z,979.9
2017-06-23T09:23:37.901Z,979.9
2017-06-23T09:24:40.670Z,980
2017-06-23T09:25:43.998Z,980
2017-06-23T09:26:47.322Z,980
2017-06-23T09:27:50.120Z,979.6
2017-06-23T09:28:53.056Z,979.9
2017-06-23T09:29:55.651Z,979.7
2017-06-23T09:30:58.321Z,979.9
2017-06-23T09:32:01.070Z,979.9
2017-06-23T09:33:03.720Z,979.8
2017-06-23T09:34:06.418Z,979.9
2017-06-23T09:35:09.194Z,980
2017-06-23T09:36:12.034Z,979.8
2017-06-23T09:37:14.824Z,979.8
2017-06-23T09:38:17.595Z,979.9
2017-06-23T09:39:20.288Z,979.8
2017-06-23T09:40:22.971Z,979.9
2017-06-23T09:41:25.686Z,979.8
2017-06-23T09:42:28.520Z,979.8
2017-06-23T09:43:31.307Z,979.9
2017-06-23T09:44:33.942Z,979.8
2017-06-23T09:45:36.647Z,979.9
2017-06-23T09:46:39.302Z,979.6
2017-06-23T09:47:42.174Z,979.9
2017-06-23T09:48:44.864Z,979.9
2017-06-23T09:49:47.628Z,979.9
2017-06-23T09:50:50.915Z,979.9
2017-06-23T09:51:53.630Z,980
2017-06-23T09:52:56.462Z,979.9
2017-06-23T09:53:59.368Z,979.9
2017-06-23T09:55:02.213Z,979.9
2017-06-23T09:56:04.956Z,979.5
2017-06-23T09:57:07.769Z,979.9
2017-06-23T09:58:10.512Z,979.8
2017-06-23T09:59:13.195Z,979.8
2017-06-23T10:00:16.489Z,979.8
2017-06-23T10:01:19.255Z,979.8
2017-06-23T10:02:22.377Z,979.8
2017-06-23T10:03:25.184Z,979.8
2017-06-23T10:04:27.856Z,979.7
2017-06-23T10:05:30.555Z,979.6
2017-06-23T10:06:33.527Z,979.9
2017-06-23T10:07:39.460Z,979.9
2017-06-23T10:08:42.388Z,979.8
2017-06-23T10:09:45.076Z,979.9
2017-06-23T10:10:47.720Z,979.8
2017-06-23T10:11:50.722Z,979.6
2017-06-23T10:12:54.098Z,979.8
2017-06-23T10:13:56.702Z,979.8
2017-06-23T10:14:59.491Z,979.9
2017-06-23T10:16:02.289Z,979.8
2017-06-23T10:17:04.961Z,979.6
2017-06-23T10:18:07.601Z,979.8
2017-06-23T10:19:10.229Z,979.8
2017-06-23T10:20:12.932Z,979.9
2017-06-23T10:21:15.517Z,979.8
2017-06-23T10:22:18.123Z,979.8
2017-06-23T10:23:20.819Z,979.8
2017-06-23T10:24:23.598Z,979.8
2017-06-23T10:25:31.541Z,979.9
2017-06-23T10:26:34.203Z,979.8
2017-06-23T10:27:36.886Z,979.6
2017-06-23T10:28:39.507Z,979.9
2017-06-23T10:29:42.323Z,979.9
2017-06-23T10:30:45.109Z,979.9
2017-06-23T10:31:47.975Z,979.9
2017-06-23T10:32:50.560Z,979.7
2017-06-23T10:33:53.317Z,980
2017-06-23T10:34:55.964Z,980
2017-06-23T10:35:58.584Z,980
2017-06-23T10:37:03.259Z,980
2017-06-23T10:38:05.879Z,980
2017-06-23T10:39:08.587Z,980
2017-06-23T10:40:11.398Z,979.8
2017-06-23T10:41:14.097Z,980.1
2017-06-23T10:42:21.492Z,980
2017-06-23T10:43:24.243Z,980.1
2017-06-23T10:44:27.009Z,979.8
2017-06-23T10:45:29.751Z,980
2017-06-23T10:46:32.540Z,980.1
2017-06-23T10:47:35.458Z,980.1
2017-06-23T10:48:38.136Z,980.1
2017-06-23T10:49:40.744Z,980.1
2017-06-23T10:50:43.610Z,980
2017-06-23T10:51:47.146Z,980.1
2017-06-23T10:52:49.954Z,980.1
2017-06-23T10:53:52.807Z,979.8
2017-06-23T10:54:56.226Z,980.1
2017-06-23T10:55:59.355Z,980.1
2017-06-23T10:57:02.986Z,980.1
2017-06-23T10:58:06.779Z,980.1
2017-06-23T10:59:09.565Z,980.1
2017-06-23T11:00:13.507Z,979.8
2017-06-23T11:01:16.504Z,980
2017-06-23T11:02:19.663Z,980
2017-06-23T11:03:23.006Z,980.1
2017-06-23T11:04:26.548Z,980
2017-06-23T11:05:29.512Z,980.1
2017-06-23T11:06:33.306Z,980.1
2017-06-23T11:07:36.686Z,980.1
2017-06-23T11:08:39.958Z,979.8
2017-06-23T11:09:43.131Z,980
2017-06-23T11:10:45.789Z,980
2017-06-23T11:11:49.047Z,980
2017-06-23T11:12:52.294Z,980
2017-06-23T11:13:57.403Z,980
2017-06-23T11:15:01.637Z,979.7
2017-06-23T11:16:06.537Z,980
2017-06-23T11:17:11.431Z,980
2017-06-23T11:18:14.155Z,980.2
2017-06-23T11:19:17.224Z,980.1
2017-06-23T11:20:20.358Z,980.1
2017-06-23T11:21:23.640Z,980.1
2017-06-23T11:22:26.716Z,980.1
2017-06-23T11:23:29.848Z,980
2017-06-23T11:24:32.640Z,980.1
2017-06-23T11:25:35.560Z,980
2017-06-23T11:26:38.490Z,980
2017-06-23T11:27:41.554Z,980
2017-06-23T11:28:44.547Z,980
2017-06-23T11:29:47.660Z,979.8
2017-06-23T11:30:50.351Z,980.1
2017-06-23T11:31:53.407Z,980.1
2017-06-23T11:32:56.369Z,980.1
2017-06-23T11:33:59.348Z,980
2017-06-23T11:35:02.169Z,980.1
2017-06-23T11:36:05.070Z,980.1
2017-06-23T11:37:09.307Z,980
2017-06-23T11:38:12.134Z,980.1
2017-06-23T11:39:15.516Z,980
2017-06-23T11:40:18.273Z,980
2017-06-23T11:41:21.536Z,979.7
2017-06-23T11:42:24.646Z,980
2017-06-23T11:43:27.472Z,980.1
2017-06-23T11:44:30.365Z,979.9
2017-06-23T11:45:33.452Z,980.2
2017-06-23T11:46:36.227Z,980.1
2017-06-23T11:47:39.332Z,980.1
2017-06-23T11:48:42.254Z,980.1
2017-06-23T11:49:45.008Z,980.1
2017-06-23T11:50:47.772Z,980.1
2017-06-23T11:51:50.528Z,980.1
2017-06-23T11:52:53.359Z,980.1
2017-06-23T11:53:56.242Z,980.1
2017-06-23T11:54:59.236Z,980.1
2017-06-23T11:56:02.123Z,980.1
2017-06-23T11:57:05.568Z,979.8
2017-06-23T11:58:08.377Z,979.9
2017-06-23T11:59:11.044Z,979.7
2017-06-23T12:00:14.044Z,980
2017-06-23T12:01:16.828Z,979.9
2017-06-23T12:02:19.670Z,979.9
2017-06-23T12:03:22.457Z,979.9
2017-06-23T12:04:25.318Z,980
2017-06-23T12:05:28.178Z,979.9
2017-06-23T12:06:31.246Z,979.9
2017-06-23T12:07:34.143Z,979.8
2017-06-23T12:08:36.961Z,979.9
2017-06-23T12:09:39.776Z,979.9
2017-06-23T12:10:42.622Z,980
2017-06-23T12:11:45.400Z,980.1
2017-06-23T12:12:48.158Z,980
2017-06-23T12:13:51.284Z,980
2017-06-23T12:14:54.064Z,980
2017-06-23T12:15:56.846Z,980
2017-06-23T12:16:59.680Z,979.7
2017-06-23T12:18:02.548Z,980
2017-06-23T12:19:05.488Z,980
2017-06-23T12:20:08.316Z,980
2017-06-23T12:21:11.119Z,979.7
2017-06-23T12:22:14.066Z,980
2017-06-23T12:23:16.801Z,980
2017-06-23T12:24:19.413Z,980
2017-06-23T12:25:22.175Z,980
2017-06-23T12:26:24.843Z,980.1
2017-06-23T12:27:27.607Z,980
2017-06-23T12:28:30.741Z,979.7
2017-06-23T12:29:33.566Z,979.7
2017-06-23T12:30:36.358Z,980
2017-06-23T12:31:39.122Z,982.4
2017-06-23T12:32:42.165Z,980
2017-06-23T12:33:45.159Z,980.1
2017-06-23T12:34:47.990Z,980.1
2017-06-23T12:35:50.886Z,980.1
2017-06-23T12:36:53.658Z,980
2017-06-23T12:37:56.736Z,980
2017-06-23T12:38:59.441Z,980
2017-06-23T12:40:02.333Z,980
2017-06-23T12:41:04.941Z,980
2017-06-23T12:42:07.716Z,980.1
2017-06-23T12:43:10.494Z,980.1
2017-06-23T12:44:13.547Z,980.1
2017-06-23T12:45:16.431Z,980
2017-06-23T12:46:20.209Z,979.8
2017-06-23T12:47:23.157Z,979.8
2017-06-23T12:48:26.156Z,980.1
2017-06-23T12:49:28.943Z,980.1
2017-06-23T12:50:32.042Z,980
2017-06-23T12:51:34.968Z,979.8
2017-06-23T12:52:37.814Z,980
2017-06-23T12:53:40.593Z,980
2017-06-23T12:54:43.568Z,979.9
2017-06-23T12:55:46.334Z,980
2017-06-23T12:56:49.248Z,980.1
2017-06-23T12:57:53.565Z,980
2017-06-23T12:58:56.460Z,980
2017-06-23T12:59:59.325Z,980
2017-06-23T13:01:02.384Z,980
2017-06-23T13:02:05.441Z,979.9
2017-06-23T13:03:08.406Z,979.8
2017-06-23T13:04:11.213Z,979.8
2017-06-23T13:05:14.317Z,980
2017-06-23T13:06:17.194Z,979.8
2017-06-23T13:07:20.079Z,980.3
2017-06-23T13:08:26.980Z,980.2
2017-06-23T13:09:33.909Z,981
2017-06-23T13:10:42.983Z,980.7
2017-06-23T13:11:50.610Z,980.7
2017-06-23T13:13:04.888Z,980.7
2017-06-23T13:14:19.552Z,980.7
2017-06-23T13:18:12.125Z,980.5
2017-06-23T13:25:04.080Z,980.8
2017-06-23T13:28:59.590Z,980.9
2017-06-23T13:30:19.279Z,980.8
2017-06-23T13:34:17.477Z,980.8
2017-06-23T13:37:00.031Z,980.8
2017-06-23T13:47:34.838Z,980.4
2017-06-23T13:50:18.931Z,980.7
2017-06-23T13:54:20.751Z,980.7
2017-06-23T13:57:06.754Z,980.5
2017-06-23T14:01:14.539Z,980.9
2017-06-23T14:03:47.911Z,980.7
2017-06-23T14:06:32.567Z,980.7
2017-06-23T14:09:22.602Z,980.4
2017-06-23T14:45:59.819Z,980.3
2017-06-23T14:47:02.902Z,980.6
2017-06-23T14:48:06.184Z,980.5
2017-06-23T14:49:09.120Z,980.5
2017-06-23T14:50:11.871Z,980.5
2017-06-23T14:51:15.646Z,980.5
2017-06-23T14:52:18.618Z,980.6
2017-06-23T14:53:21.570Z,980.5